sensor_id;sensor_type;location;lat;lon;timestamp;temperature;humidity
67868;SHT31;54672;46.096;14.470;2022-10-23T00:03:46;10.21;99.99
67868;SHT31;54672;46.096;14.470;2022-10-23T00:06:13;10.24;99.99
67868;SHT31;54672;46.096;14.470;2022-10-23T00:08:39;10.34;99.99
67868;SHT31;54672;46.096;14.470;2022-10-23T00:11:06;10.20;99.99
67868;SHT31;54672;46.096;14.470;2022-10-23T00:13:32;10.17;99.99
67868;SHT31;54672;46.096;14.470;2022-10-23T00:15:57;10.14;99.99
67868;SHT31;54672;46.096;14.470;2022-10-23T00:18:23;10.10;99.99
67868;SHT31;54672;46.096;14.470;2022-10-23T00:20:48;10.05;99.99
67868;SHT31;54672;46.096;14.470;2022-10-23T00:23:15;9.97;99.99
67868;SHT31;54672;46.096;14.470;2022-10-23T00:25:41;9.97;99.99
67868;SHT31;54672;46.096;14.470;2022-10-23T00:28:06;10.10;99.99
67868;SHT31;54672;46.096;14.470;2022-10-23T00:30:32;10.02;99.99
67868;SHT31;54672;46.096;14.470;2022-10-23T00:32:57;10.06;99.99
67868;SHT31;54672;46.096;14.470;2022-10-23T00:35:23;10.12;99.99
67868;SHT31;54672;46.096;14.470;2022-10-23T00:37:48;10.18;99.99
67868;SHT31;54672;46.096;14.470;2022-10-23T00:40:14;10.26;99.99
67868;SHT31;54672;46.096;14.470;2022-10-23T00:42:39;10.09;99.99
67868;SHT31;54672;46.096;14.470;2022-10-23T00:45:18;10.12;99.99
67868;SHT31;54672;46.096;14.470;2022-10-23T00:47:44;10.18;99.99
67868;SHT31;54672;46.096;14.470;2022-10-23T00:50:10;10.17;99.99
67868;SHT31;54672;46.096;14.470;2022-10-23T00:52:39;10.17;99.99
67868;SHT31;54672;46.096;14.470;2022-10-23T00:55:06;10.21;99.99
67868;SHT31;54672;46.096;14.470;2022-10-23T00:57:31;10.20;99.99
67868;SHT31;54672;46.096;14.470;2022-10-23T00:59:57;10.18;99.99
67868;SHT31;54672;46.096;14.470;2022-10-23T01:02:22;10.24;99.99
67868;SHT31;54672;46.096;14.470;2022-10-23T01:04:48;10.30;99.99
67868;SHT31;54672;46.096;14.470;2022-10-23T01:10:05;10.48;99.99
67868;SHT31;54672;46.096;14.470;2022-10-23T01:18:50;10.69;99.99
67868;SHT31;54672;46.096;14.470;2022-10-23T01:21:46;10.67;99.99
67868;SHT31;54672;46.096;14.470;2022-10-23T01:27:38;10.50;99.99
67868;SHT31;54672;46.096;14.470;2022-10-23T01:30:11;10.43;99.99
67868;SHT31;54672;46.096;14.470;2022-10-23T01:32:46;10.32;99.99
67868;SHT31;54672;46.096;14.470;2022-10-23T01:37:44;10.30;99.99
67868;SHT31;54672;46.096;14.470;2022-10-23T01:40:19;10.20;99.99
67868;SHT31;54672;46.096;14.470;2022-10-23T01:42:51;10.26;99.99
67868;SHT31;54672;46.096;14.470;2022-10-23T01:45:31;10.26;99.99
67868;SHT31;54672;46.096;14.470;2022-10-23T01:48:02;10.20;99.99
67868;SHT31;54672;46.096;14.470;2022-10-23T01:50:29;10.17;99.99
67868;SHT31;54672;46.096;14.470;2022-10-23T01:52:56;10.18;99.99
67868;SHT31;54672;46.096;14.470;2022-10-23T01:55:22;10.18;99.99
67868;SHT31;54672;46.096;14.470;2022-10-23T01:57:49;10.17;99.99
67868;SHT31;54672;46.096;14.470;2022-10-23T02:00:17;10.18;99.99
67868;SHT31;54672;46.096;14.470;2022-10-23T02:02:46;10.14;99.99
67868;SHT31;54672;46.096;14.470;2022-10-23T02:05:33;10.18;99.99
67868;SHT31;54672;46.096;14.470;2022-10-23T02:07:59;10.29;99.99
67868;SHT31;54672;46.096;14.470;2022-10-23T02:10:31;10.37;99.99
67868;SHT31;54672;46.096;14.470;2022-10-23T02:13:05;10.47;99.99
67868;SHT31;54672;46.096;14.470;2022-10-23T02:15:45;10.48;99.99
67868;SHT31;54672;46.096;14.470;2022-10-23T02:20:55;10.34;99.99
67868;SHT31;54672;46.096;14.470;2022-10-23T02:23:27;10.23;99.99
67868;SHT31;54672;46.096;14.470;2022-10-23T02:25:59;10.33;99.99
67868;SHT31;54672;46.096;14.470;2022-10-23T02:28:33;10.41;99.99
67868;SHT31;54672;46.096;14.470;2022-10-23T02:31:04;10.48;99.99
67868;SHT31;54672;46.096;14.470;2022-10-23T02:33:33;10.51;99.99
67868;SHT31;54672;46.096;14.470;2022-10-23T02:36:00;10.51;99.99
67868;SHT31;54672;46.096;14.470;2022-10-23T02:38:34;10.24;99.99
67868;SHT31;54672;46.096;14.470;2022-10-23T02:41:12;10.23;99.99
67868;SHT31;54672;46.096;14.470;2022-10-23T02:49:23;10.20;99.99
67868;SHT31;54672;46.096;14.470;2022-10-23T02:54:30;10.18;99.99
67868;SHT31;54672;46.096;14.470;2022-10-23T02:57:15;10.13;99.99
67868;SHT31;54672;46.096;14.470;2022-10-23T03:03:29;10.13;99.99
67868;SHT31;54672;46.096;14.470;2022-10-23T03:05:36;10.26;99.99
67868;SHT31;54672;46.096;14.470;2022-10-23T03:08:04;10.26;99.99
67868;SHT31;54672;46.096;14.470;2022-10-23T03:10:30;10.14;99.99
67868;SHT31;54672;46.096;14.470;2022-10-23T03:12:55;10.10;99.99
67868;SHT31;54672;46.096;14.470;2022-10-23T03:15:21;10.23;99.99
67868;SHT31;54672;46.096;14.470;2022-10-23T03:17:46;10.13;99.99
67868;SHT31;54672;46.096;14.470;2022-10-23T03:20:12;10.02;99.99
67868;SHT31;54672;46.096;14.470;2022-10-23T03:22:38;10.03;99.99
67868;SHT31;54672;46.096;14.470;2022-10-23T03:25:04;10.10;99.99
67868;SHT31;54672;46.096;14.470;2022-10-23T03:27:30;10.16;99.99
67868;SHT31;54672;46.096;14.470;2022-10-23T03:29:55;10.02;99.99
67868;SHT31;54672;46.096;14.470;2022-10-23T03:32:20;10.07;99.99
67868;SHT31;54672;46.096;14.470;2022-10-23T03:34:46;10.07;99.99
67868;SHT31;54672;46.096;14.470;2022-10-23T03:37:11;10.09;99.99
67868;SHT31;54672;46.096;14.470;2022-10-23T03:39:37;10.09;99.99
67868;SHT31;54672;46.096;14.470;2022-10-23T03:42:02;10.17;99.99
67868;SHT31;54672;46.096;14.470;2022-10-23T03:44:28;10.20;99.99
67868;SHT31;54672;46.096;14.470;2022-10-23T03:46:55;10.21;99.99
67868;SHT31;54672;46.096;14.470;2022-10-23T03:49:21;10.24;99.99
67868;SHT31;54672;46.096;14.470;2022-10-23T03:51:46;10.32;99.99
67868;SHT31;54672;46.096;14.470;2022-10-23T03:54:19;10.23;99.99
67868;SHT31;54672;46.096;14.470;2022-10-23T03:56:44;10.20;99.99
67868;SHT31;54672;46.096;14.470;2022-10-23T03:59:10;10.23;99.99
67868;SHT31;54672;46.096;14.470;2022-10-23T04:01:35;10.24;99.99
67868;SHT31;54672;46.096;14.470;2022-10-23T04:04:01;10.26;99.99
67868;SHT31;54672;46.096;14.470;2022-10-23T04:06:27;10.26;99.99
67868;SHT31;54672;46.096;14.470;2022-10-23T04:08:52;10.26;99.99
67868;SHT31;54672;46.096;14.470;2022-10-23T04:11:18;10.23;99.99
67868;SHT31;54672;46.096;14.470;2022-10-23T04:13:43;10.26;99.99
67868;SHT31;54672;46.096;14.470;2022-10-23T04:16:09;10.21;99.99
67868;SHT31;54672;46.096;14.470;2022-10-23T04:18:34;10.20;99.99
67868;SHT31;54672;46.096;14.470;2022-10-23T04:20:59;10.24;99.99
67868;SHT31;54672;46.096;14.470;2022-10-23T04:23:25;10.18;99.99
67868;SHT31;54672;46.096;14.470;2022-10-23T04:25:50;10.16;99.99
67868;SHT31;54672;46.096;14.470;2022-10-23T04:28:15;10.16;99.99
67868;SHT31;54672;46.096;14.470;2022-10-23T04:30:41;10.03;99.99
67868;SHT31;54672;46.096;14.470;2022-10-23T04:33:06;10.03;99.99
67868;SHT31;54672;46.096;14.470;2022-10-23T04:35:32;10.06;99.99
67868;SHT31;54672;46.096;14.470;2022-10-23T04:37:57;10.14;99.99
67868;SHT31;54672;46.096;14.470;2022-10-23T04:40:23;10.14;99.99
67868;SHT31;54672;46.096;14.470;2022-10-23T04:42:48;10.20;99.99
67868;SHT31;54672;46.096;14.470;2022-10-23T04:45:13;10.12;99.99
67868;SHT31;54672;46.096;14.470;2022-10-23T04:47:39;10.07;99.99
67868;SHT31;54672;46.096;14.470;2022-10-23T04:50:05;10.06;99.99
67868;SHT31;54672;46.096;14.470;2022-10-23T04:52:30;10.03;99.99
67868;SHT31;54672;46.096;14.470;2022-10-23T04:54:56;10.09;99.99
67868;SHT31;54672;46.096;14.470;2022-10-23T04:57:21;10.17;99.99
67868;SHT31;54672;46.096;14.470;2022-10-23T04:59:47;10.14;99.99
67868;SHT31;54672;46.096;14.470;2022-10-23T05:02:12;10.14;99.99
67868;SHT31;54672;46.096;14.470;2022-10-23T05:04:38;10.07;99.99
67868;SHT31;54672;46.096;14.470;2022-10-23T05:07:03;10.06;99.99
67868;SHT31;54672;46.096;14.470;2022-10-23T05:09:29;10.13;99.99
67868;SHT31;54672;46.096;14.470;2022-10-23T05:11:54;10.18;99.99
67868;SHT31;54672;46.096;14.470;2022-10-23T05:14:20;10.21;99.99
67868;SHT31;54672;46.096;14.470;2022-10-23T05:16:54;10.27;99.99
67868;SHT31;54672;46.096;14.470;2022-10-23T05:19:25;10.33;99.99
67868;SHT31;54672;46.096;14.470;2022-10-23T05:21:52;10.38;99.99
67868;SHT31;54672;46.096;14.470;2022-10-23T05:24:24;10.24;99.99
67868;SHT31;54672;46.096;14.470;2022-10-23T05:26:50;10.17;99.99
67868;SHT31;54672;46.096;14.470;2022-10-23T05:29:18;10.23;99.99
67868;SHT31;54672;46.096;14.470;2022-10-23T05:31:43;10.30;99.99
67868;SHT31;54672;46.096;14.470;2022-10-23T05:34:10;10.36;99.99
67868;SHT31;54672;46.096;14.470;2022-10-23T05:36:37;10.44;99.99
67868;SHT31;54672;46.096;14.470;2022-10-23T05:39:03;10.47;99.99
67868;SHT31;54672;46.096;14.470;2022-10-23T05:41:29;10.48;99.99
67868;SHT31;54672;46.096;14.470;2022-10-23T05:43:55;10.51;99.99
67868;SHT31;54672;46.096;14.470;2022-10-23T05:46:20;10.51;99.99
67868;SHT31;54672;46.096;14.470;2022-10-23T05:48:50;10.60;99.99
67868;SHT31;54672;46.096;14.470;2022-10-23T05:51:17;10.60;99.99
67868;SHT31;54672;46.096;14.470;2022-10-23T05:53:49;10.51;99.99
67868;SHT31;54672;46.096;14.470;2022-10-23T05:56:15;10.60;99.99
67868;SHT31;54672;46.096;14.470;2022-10-23T05:58:41;10.65;99.99
67868;SHT31;54672;46.096;14.470;2022-10-23T06:01:09;10.58;99.99
67868;SHT31;54672;46.096;14.470;2022-10-23T06:03:36;10.63;99.99
67868;SHT31;54672;46.096;14.470;2022-10-23T06:06:02;10.60;99.99
67868;SHT31;54672;46.096;14.470;2022-10-23T06:08:29;10.54;99.99
67868;SHT31;54672;46.096;14.470;2022-10-23T06:10:55;10.57;99.99
67868;SHT31;54672;46.096;14.470;2022-10-23T06:13:20;10.53;99.99
67868;SHT31;54672;46.096;14.470;2022-10-23T06:15:46;10.51;99.99
67868;SHT31;54672;46.096;14.470;2022-10-23T06:18:12;10.50;99.99
67868;SHT31;54672;46.096;14.470;2022-10-23T06:20:38;10.50;99.99
67868;SHT31;54672;46.096;14.470;2022-10-23T06:23:04;10.48;99.99
67868;SHT31;54672;46.096;14.470;2022-10-23T06:25:30;10.47;99.99
67868;SHT31;54672;46.096;14.470;2022-10-23T06:27:55;10.54;99.99
67868;SHT31;54672;46.096;14.470;2022-10-23T06:30:21;10.63;99.99
67868;SHT31;54672;46.096;14.470;2022-10-23T06:32:46;10.54;99.99
67868;SHT31;54672;46.096;14.470;2022-10-23T06:35:12;10.58;99.99
67868;SHT31;54672;46.096;14.470;2022-10-23T06:37:37;10.58;99.99
67868;SHT31;54672;46.096;14.470;2022-10-23T06:40:04;10.63;99.99
67868;SHT31;54672;46.096;14.470;2022-10-23T06:42:29;10.67;99.99
67868;SHT31;54672;46.096;14.470;2022-10-23T06:44:55;10.67;99.99
67868;SHT31;54672;46.096;14.470;2022-10-23T06:47:21;10.63;99.99
67868;SHT31;54672;46.096;14.470;2022-10-23T06:49:46;10.64;99.99
67868;SHT31;54672;46.096;14.470;2022-10-23T06:52:12;10.75;99.99
67868;SHT31;54672;46.096;14.470;2022-10-23T06:54:37;10.65;99.85
67868;SHT31;54672;46.096;14.470;2022-10-23T06:57:02;10.72;99.99
67868;SHT31;54672;46.096;14.470;2022-10-23T06:59:28;10.68;99.90
67868;SHT31;54672;46.096;14.470;2022-10-23T07:01:53;10.74;99.97
67868;SHT31;54672;46.096;14.470;2022-10-23T07:04:19;10.72;99.99
67868;SHT31;54672;46.096;14.470;2022-10-23T07:06:44;10.67;99.99
67868;SHT31;54672;46.096;14.470;2022-10-23T07:09:10;10.72;99.99
67868;SHT31;54672;46.096;14.470;2022-10-23T07:11:35;10.69;99.99
67868;SHT31;54672;46.096;14.470;2022-10-23T07:14:01;10.71;99.99
67868;SHT31;54672;46.096;14.470;2022-10-23T07:16:26;10.72;99.99
67868;SHT31;54672;46.096;14.470;2022-10-23T07:18:55;10.71;99.99
67868;SHT31;54672;46.096;14.470;2022-10-23T07:21:29;10.82;99.87
67868;SHT31;54672;46.096;14.470;2022-10-23T07:23:56;10.89;99.95
67868;SHT31;54672;46.096;14.470;2022-10-23T07:26:21;11.04;99.67
67868;SHT31;54672;46.096;14.470;2022-10-23T07:28:47;11.11;99.46
67868;SHT31;54672;46.096;14.470;2022-10-23T07:31:15;11.15;99.36
67868;SHT31;54672;46.096;14.470;2022-10-23T07:33:41;11.20;99.35
67868;SHT31;54672;46.096;14.470;2022-10-23T07:36:08;11.25;98.94
67868;SHT31;54672;46.096;14.470;2022-10-23T07:38:34;11.32;98.93
67868;SHT31;54672;46.096;14.470;2022-10-23T07:40:59;11.23;98.33
67868;SHT31;54672;46.096;14.470;2022-10-23T07:43:25;11.05;99.01
67868;SHT31;54672;46.096;14.470;2022-10-23T07:45:51;11.19;99.85
67868;SHT31;54672;46.096;14.470;2022-10-23T07:48:17;11.25;99.19
67868;SHT31;54672;46.096;14.470;2022-10-23T07:50:43;11.32;99.15
67868;SHT31;54672;46.096;14.470;2022-10-23T07:53:22;11.39;98.81
67868;SHT31;54672;46.096;14.470;2022-10-23T07:55:57;11.50;98.12
67868;SHT31;54672;46.096;14.470;2022-10-23T07:58:23;11.62;97.73
67868;SHT31;54672;46.096;14.470;2022-10-23T08:00:53;11.74;97.85
67868;SHT31;54672;46.096;14.470;2022-10-23T08:03:20;11.77;97.97
67868;SHT31;54672;46.096;14.470;2022-10-23T08:05:45;11.59;97.74
67868;SHT31;54672;46.096;14.470;2022-10-23T08:08:11;11.50;98.01
67868;SHT31;54672;46.096;14.470;2022-10-23T08:10:36;11.44;98.41
67868;SHT31;54672;46.096;14.470;2022-10-23T08:13:02;11.43;97.92
67868;SHT31;54672;46.096;14.470;2022-10-23T08:15:27;11.27;98.21
67868;SHT31;54672;46.096;14.470;2022-10-23T08:17:53;11.42;98.58
67868;SHT31;54672;46.096;14.470;2022-10-23T08:20:18;11.56;98.70
67868;SHT31;54672;46.096;14.470;2022-10-23T08:22:43;11.46;97.90
67868;SHT31;54672;46.096;14.470;2022-10-23T08:25:09;11.33;98.27
67868;SHT31;54672;46.096;14.470;2022-10-23T08:27:35;11.47;98.53
67868;SHT31;54672;46.096;14.470;2022-10-23T08:30:00;11.46;97.95
67868;SHT31;54672;46.096;14.470;2022-10-23T08:32:29;11.52;98.24
67868;SHT31;54672;46.096;14.470;2022-10-23T08:34:55;11.57;97.59
67868;SHT31;54672;46.096;14.470;2022-10-23T08:37:20;11.69;97.72
67868;SHT31;54672;46.096;14.470;2022-10-23T08:39:46;11.90;97.77
67868;SHT31;54672;46.096;14.470;2022-10-23T08:42:20;12.05;97.44
67868;SHT31;54672;46.096;14.470;2022-10-23T08:45:11;12.22;97.31
67868;SHT31;54672;46.096;14.470;2022-10-23T08:47:48;12.39;96.99
67868;SHT31;54672;46.096;14.470;2022-10-23T08:52:53;12.13;95.27
67868;SHT31;54672;46.096;14.470;2022-10-23T08:55:40;12.21;95.28
67868;SHT31;54672;46.096;14.470;2022-10-23T09:00:41;12.46;94.96
67868;SHT31;54672;46.096;14.470;2022-10-23T09:03:09;12.66;94.87
67868;SHT31;54672;46.096;14.470;2022-10-23T09:11:15;12.65;94.89
67868;SHT31;54672;46.096;14.470;2022-10-23T09:13:59;12.66;93.64
67868;SHT31;54672;46.096;14.470;2022-10-23T09:19:16;12.57;94.44
67868;SHT31;54672;46.096;14.470;2022-10-23T09:21:45;12.77;93.72
67868;SHT31;54672;46.096;14.470;2022-10-23T09:24:16;13.07;93.94
67868;SHT31;54672;46.096;14.470;2022-10-23T09:26:46;13.15;93.09
67868;SHT31;54672;46.096;14.470;2022-10-23T09:29:23;13.30;93.26
67868;SHT31;54672;46.096;14.470;2022-10-23T09:31:57;12.99;93.13
67868;SHT31;54672;46.096;14.470;2022-10-23T09:34:26;12.77;94.49
67868;SHT31;54672;46.096;14.470;2022-10-23T09:37:00;12.45;95.48
67868;SHT31;54672;46.096;14.470;2022-10-23T09:39:35;12.53;96.41
67868;SHT31;54672;46.096;14.470;2022-10-23T09:42:14;12.55;95.49
67868;SHT31;54672;46.096;14.470;2022-10-23T09:44:49;12.70;94.45
67868;SHT31;54672;46.096;14.470;2022-10-23T09:47:18;12.66;95.02
67868;SHT31;54672;46.096;14.470;2022-10-23T09:49:49;12.55;94.72
67868;SHT31;54672;46.096;14.470;2022-10-23T09:54:48;12.80;94.53
67868;SHT31;54672;46.096;14.470;2022-10-23T10:00:00;13.10;94.52
67868;SHT31;54672;46.096;14.470;2022-10-23T10:02:30;13.23;94.23
67868;SHT31;54672;46.096;14.470;2022-10-23T10:04:57;13.28;94.45
67868;SHT31;54672;46.096;14.470;2022-10-23T10:07:25;13.24;93.85
67868;SHT31;54672;46.096;14.470;2022-10-23T10:09:55;12.92;94.82
67868;SHT31;54672;46.096;14.470;2022-10-23T10:15:28;12.75;96.06
67868;SHT31;54672;46.096;14.470;2022-10-23T10:29:16;12.90;95.73
67868;SHT31;54672;46.096;14.470;2022-10-23T10:41:01;13.55;94.76
67868;SHT31;54672;46.096;14.470;2022-10-23T10:45:53;13.35;94.09
67868;SHT31;54672;46.096;14.470;2022-10-23T10:48:45;13.11;94.67
67868;SHT31;54672;46.096;14.470;2022-10-23T10:56:26;13.58;93.26
67868;SHT31;54672;46.096;14.470;2022-10-23T10:58:58;13.40;93.42
67868;SHT31;54672;46.096;14.470;2022-10-23T11:01:33;13.47;93.83
67868;SHT31;54672;46.096;14.470;2022-10-23T11:04:16;13.30;93.96
67868;SHT31;54672;46.096;14.470;2022-10-23T11:06:44;13.21;94.23
67868;SHT31;54672;46.096;14.470;2022-10-23T11:09:20;13.31;93.54
67868;SHT31;54672;46.096;14.470;2022-10-23T11:11:46;13.47;93.92
67868;SHT31;54672;46.096;14.470;2022-10-23T11:14:17;13.72;93.34
67868;SHT31;54672;46.096;14.470;2022-10-23T11:17:13;14.30;91.63
67868;SHT31;54672;46.096;14.470;2022-10-23T11:22:33;14.10;90.53
67868;SHT31;54672;46.096;14.470;2022-10-23T11:25:25;13.83;92.01
67868;SHT31;54672;46.096;14.470;2022-10-23T11:34:07;14.75;88.79
67868;SHT31;54672;46.096;14.470;2022-10-23T11:36:55;14.99;88.42
67868;SHT31;54672;46.096;14.470;2022-10-23T11:39:29;15.19;88.11
67868;SHT31;54672;46.096;14.470;2022-10-23T11:44:47;15.40;86.52
67868;SHT31;54672;46.096;14.470;2022-10-23T11:52:30;14.59;91.22
67868;SHT31;54672;46.096;14.470;2022-10-23T11:55:15;14.77;90.45
67868;SHT31;54672;46.096;14.470;2022-10-23T11:57:58;15.01;90.27
67868;SHT31;54672;46.096;14.470;2022-10-23T12:00:38;15.39;89.49
67868;SHT31;54672;46.096;14.470;2022-10-23T12:03:13;15.52;88.85
67868;SHT31;54672;46.096;14.470;2022-10-23T12:05:40;15.15;88.65
67868;SHT31;54672;46.096;14.470;2022-10-23T12:08:24;14.68;90.77
67868;SHT31;54672;46.096;14.470;2022-10-23T12:10:58;14.54;92.37
67868;SHT31;54672;46.096;14.470;2022-10-23T12:16:52;14.48;93.28
67868;SHT31;54672;46.096;14.470;2022-10-23T12:19:22;14.33;92.90
67868;SHT31;54672;46.096;14.470;2022-10-23T12:21:54;14.34;93.25
67868;SHT31;54672;46.096;14.470;2022-10-23T12:24:34;14.50;92.75
67868;SHT31;54672;46.096;14.470;2022-10-23T12:32:29;14.67;93.78
67868;SHT31;54672;46.096;14.470;2022-10-23T12:35:24;15.01;92.92
67868;SHT31;54672;46.096;14.470;2022-10-23T12:40:22;14.53;93.18
67868;SHT31;54672;46.096;14.470;2022-10-23T12:42:55;14.38;94.07
67868;SHT31;54672;46.096;14.470;2022-10-23T12:45:27;14.38;93.68
67868;SHT31;54672;46.096;14.470;2022-10-23T12:47:54;14.36;93.75
67868;SHT31;54672;46.096;14.470;2022-10-23T12:50:26;14.37;93.89
67868;SHT31;54672;46.096;14.470;2022-10-23T12:53:00;14.34;94.36
67868;SHT31;54672;46.096;14.470;2022-10-23T12:55:31;14.36;94.71
67868;SHT31;54672;46.096;14.470;2022-10-23T12:57:57;14.46;94.94
67868;SHT31;54672;46.096;14.470;2022-10-23T13:00:23;14.54;94.67
67868;SHT31;54672;46.096;14.470;2022-10-23T13:03:00;14.78;93.97
67868;SHT31;54672;46.096;14.470;2022-10-23T13:05:26;14.77;93.79
67868;SHT31;54672;46.096;14.470;2022-10-23T13:07:52;14.83;93.48
67868;SHT31;54672;46.096;14.470;2022-10-23T13:10:20;14.87;93.08
67868;SHT31;54672;46.096;14.470;2022-10-23T13:12:52;14.95;94.00
67868;SHT31;54672;46.096;14.470;2022-10-23T13:15:20;14.91;93.79
67868;SHT31;54672;46.096;14.470;2022-10-23T13:17:59;14.99;92.99
67868;SHT31;54672;46.096;14.470;2022-10-23T13:20:28;15.21;93.29
67868;SHT31;54672;46.096;14.470;2022-10-23T13:23:10;15.18;92.43
67868;SHT31;54672;46.096;14.470;2022-10-23T13:25:37;15.45;92.23
67868;SHT31;54672;46.096;14.470;2022-10-23T13:30:38;16.01;90.59
67868;SHT31;54672;46.096;14.470;2022-10-23T13:35:57;16.28;88.81
67868;SHT31;54672;46.096;14.470;2022-10-23T13:38:35;16.28;88.38
67868;SHT31;54672;46.096;14.470;2022-10-23T13:41:03;16.21;88.97
67868;SHT31;54672;46.096;14.470;2022-10-23T13:43:30;16.13;89.22
67868;SHT31;54672;46.096;14.470;2022-10-23T13:45:57;16.13;89.54
67868;SHT31;54672;46.096;14.470;2022-10-23T13:48:24;16.00;90.48
67868;SHT31;54672;46.096;14.470;2022-10-23T13:50:49;15.98;90.04
67868;SHT31;54672;46.096;14.470;2022-10-23T13:53:15;16.13;89.71
67868;SHT31;54672;46.096;14.470;2022-10-23T13:55:46;16.15;89.81
67868;SHT31;54672;46.096;14.470;2022-10-23T13:58:13;16.01;90.36
67868;SHT31;54672;46.096;14.470;2022-10-23T14:00:39;16.07;90.42
67868;SHT31;54672;46.096;14.470;2022-10-23T14:03:07;16.17;90.06
67868;SHT31;54672;46.096;14.470;2022-10-23T14:05:33;15.80;91.86
67868;SHT31;54672;46.096;14.470;2022-10-23T14:07:58;15.70;91.95
67868;SHT31;54672;46.096;14.470;2022-10-23T14:10:24;15.63;92.31
67868;SHT31;54672;46.096;14.470;2022-10-23T14:12:49;15.62;92.66
67868;SHT31;54672;46.096;14.470;2022-10-23T14:15:19;15.76;92.26
67868;SHT31;54672;46.096;14.470;2022-10-23T14:17:45;15.64;92.80
67868;SHT31;54672;46.096;14.470;2022-10-23T14:20:11;15.63;92.71
67868;SHT31;54672;46.096;14.470;2022-10-23T14:22:36;15.57;93.13
67868;SHT31;54672;46.096;14.470;2022-10-23T14:25:03;15.59;92.98
67868;SHT31;54672;46.096;14.470;2022-10-23T14:27:29;15.64;93.00
67868;SHT31;54672;46.096;14.470;2022-10-23T14:29:55;15.79;92.71
67868;SHT31;54672;46.096;14.470;2022-10-23T14:32:20;15.87;91.99
67868;SHT31;54672;46.096;14.470;2022-10-23T14:34:50;15.89;91.81
67868;SHT31;54672;46.096;14.470;2022-10-23T14:37:17;15.87;91.88
67868;SHT31;54672;46.096;14.470;2022-10-23T14:39:44;15.90;91.76
67868;SHT31;54672;46.096;14.470;2022-10-23T14:42:10;15.91;91.54
67868;SHT31;54672;46.096;14.470;2022-10-23T14:44:35;15.64;92.33
67868;SHT31;54672;46.096;14.470;2022-10-23T14:47:01;15.45;93.09
67868;SHT31;54672;46.096;14.470;2022-10-23T14:49:27;15.46;93.46
67868;SHT31;54672;46.096;14.470;2022-10-23T14:51:53;15.50;93.53
67868;SHT31;54672;46.096;14.470;2022-10-23T14:54:18;15.45;93.64
67868;SHT31;54672;46.096;14.470;2022-10-23T14:56:44;15.47;93.58
67868;SHT31;54672;46.096;14.470;2022-10-23T14:59:09;15.52;93.65
67868;SHT31;54672;46.096;14.470;2022-10-23T15:01:40;15.60;93.50
67868;SHT31;54672;46.096;14.470;2022-10-23T15:04:06;15.64;93.16
67868;SHT31;54672;46.096;14.470;2022-10-23T15:06:33;15.66;92.95
67868;SHT31;54672;46.096;14.470;2022-10-23T15:08:59;15.71;93.05
67868;SHT31;54672;46.096;14.470;2022-10-23T15:11:25;15.82;92.42
67868;SHT31;54672;46.096;14.470;2022-10-23T15:13:50;15.71;93.02
67868;SHT31;54672;46.096;14.470;2022-10-23T15:16:16;15.70;92.91
67868;SHT31;54672;46.096;14.470;2022-10-23T15:18:42;15.73;93.05
67868;SHT31;54672;46.096;14.470;2022-10-23T15:21:08;15.80;92.61
67868;SHT31;54672;46.096;14.470;2022-10-23T15:23:37;15.79;92.87
67868;SHT31;54672;46.096;14.470;2022-10-23T15:26:06;15.80;92.93
67868;SHT31;54672;46.096;14.470;2022-10-23T15:28:32;15.74;93.18
67868;SHT31;54672;46.096;14.470;2022-10-23T15:30:57;15.66;93.45
67868;SHT31;54672;46.096;14.470;2022-10-23T15:33:23;15.66;93.94
67868;SHT31;54672;46.096;14.470;2022-10-23T15:35:50;15.60;94.41
67868;SHT31;54672;46.096;14.470;2022-10-23T15:38:16;15.60;94.89
67868;SHT31;54672;46.096;14.470;2022-10-23T15:40:42;15.49;94.96
67868;SHT31;54672;46.096;14.470;2022-10-23T15:43:09;15.35;95.44
67868;SHT31;54672;46.096;14.470;2022-10-23T15:45:34;15.28;95.63
67868;SHT31;54672;46.096;14.470;2022-10-23T15:48:00;15.31;95.87
67868;SHT31;54672;46.096;14.470;2022-10-23T15:50:26;15.32;95.80
67868;SHT31;54672;46.096;14.470;2022-10-23T15:52:51;15.28;96.02
67868;SHT31;54672;46.096;14.470;2022-10-23T15:55:18;15.26;96.22
67868;SHT31;54672;46.096;14.470;2022-10-23T15:57:44;15.29;95.88
67868;SHT31;54672;46.096;14.470;2022-10-23T16:00:11;15.29;95.87
67868;SHT31;54672;46.096;14.470;2022-10-23T16:02:38;15.29;96.08
67868;SHT31;54672;46.096;14.470;2022-10-23T16:05:04;15.33;96.23
67868;SHT31;54672;46.096;14.470;2022-10-23T16:07:30;15.39;96.49
67868;SHT31;54672;46.096;14.470;2022-10-23T16:09:55;15.46;96.59
67868;SHT31;54672;46.096;14.470;2022-10-23T16:12:21;15.49;96.55
67868;SHT31;54672;46.096;14.470;2022-10-23T16:14:46;15.56;96.97
67868;SHT31;54672;46.096;14.470;2022-10-23T16:17:12;15.74;97.74
67868;SHT31;54672;46.096;14.470;2022-10-23T16:19:38;15.83;97.82
67868;SHT31;54672;46.096;14.470;2022-10-23T16:22:04;15.98;98.15
67868;SHT31;54672;46.096;14.470;2022-10-23T16:24:30;16.21;97.85
67868;SHT31;54672;46.096;14.470;2022-10-23T16:26:56;16.31;97.57
67868;SHT31;54672;46.096;14.470;2022-10-23T16:29:23;16.48;96.98
67868;SHT31;54672;46.096;14.470;2022-10-23T16:31:51;16.65;96.36
67868;SHT31;54672;46.096;14.470;2022-10-23T16:34:17;16.79;95.53
67868;SHT31;54672;46.096;14.470;2022-10-23T16:36:42;16.96;94.64
67868;SHT31;54672;46.096;14.470;2022-10-23T16:39:10;17.26;93.07
67868;SHT31;54672;46.096;14.470;2022-10-23T16:41:36;17.57;91.72
67868;SHT31;54672;46.096;14.470;2022-10-23T16:44:02;17.55;92.14
67868;SHT31;54672;46.096;14.470;2022-10-23T16:46:27;17.43;92.39
67868;SHT31;54672;46.096;14.470;2022-10-23T16:48:53;17.41;92.45
67868;SHT31;54672;46.096;14.470;2022-10-23T16:51:21;17.34;92.37
67868;SHT31;54672;46.096;14.470;2022-10-23T16:53:47;17.37;92.31
67868;SHT31;54672;46.096;14.470;2022-10-23T16:56:15;17.61;91.01
67868;SHT31;54672;46.096;14.470;2022-10-23T16:58:41;17.65;90.90
67868;SHT31;54672;46.096;14.470;2022-10-23T17:03:39;17.55;91.44
67868;SHT31;54672;46.096;14.470;2022-10-23T17:06:06;17.51;91.53
67868;SHT31;54672;46.096;14.470;2022-10-23T17:08:33;17.43;91.87
67868;SHT31;54672;46.096;14.470;2022-10-23T17:11:13;17.47;91.37
67868;SHT31;54672;46.096;14.470;2022-10-23T17:13:51;17.65;90.54
67868;SHT31;54672;46.096;14.470;2022-10-23T17:16:21;17.72;90.25
67868;SHT31;54672;46.096;14.470;2022-10-23T17:18:47;17.99;89.03
67868;SHT31;54672;46.096;14.470;2022-10-23T17:21:14;17.85;89.69